createdAt,value
2018-12-02T00:01:01.598Z,99067.07
2018-12-02T00:03:33.253Z,99073.45
2018-12-02T00:06:04.011Z,99076.14
2018-12-02T00:08:35.545Z,99074.09
2018-12-02T00:11:06.713Z,99074.56
2018-12-02T00:13:37.628Z,99078.09
2018-12-02T00:16:08.762Z,99072.19
2018-12-02T00:18:39.673Z,99076.20
2018-12-02T00:21:10.617Z,99077.70
2018-12-02T00:23:41.680Z,99082.52
2018-12-02T00:26:13.014Z,99087.11
2018-12-02T00:28:44.915Z,99092.48
2018-12-02T00:31:16.033Z,99091.48
2018-12-02T00:33:47.209Z,99088.41
2018-12-02T00:36:18.079Z,99086.82
2018-12-02T00:38:48.916Z,99086.53
2018-12-02T00:41:19.933Z,99081.66
2018-12-02T00:43:50.669Z,99088.31
2018-12-02T00:46:21.671Z,99086.52
2018-12-02T00:48:53.066Z,99099.25
2018-12-02T00:51:23.850Z,99110.30
2018-12-02T00:53:55.158Z,99111.37
2018-12-02T00:56:24.204Z,99116.78
2018-12-02T00:58:54.816Z,99116.17
2018-12-02T01:01:25.613Z,99116.66
2018-12-02T01:03:56.913Z,99119.86
2018-12-02T01:06:27.765Z,99119.60
2018-12-02T01:08:58.426Z,99112.98
2018-12-02T01:11:29.239Z,99117.45
2018-12-02T01:14:00.301Z,99127.39
2018-12-02T01:16:31.017Z,99120.77
2018-12-02T01:19:01.826Z,99113.70
2018-12-02T01:21:32.652Z,99107.86
2018-12-02T01:24:03.671Z,99112.10
2018-12-02T01:26:34.720Z,99119.50
2018-12-02T01:29:05.457Z,99119.02
2018-12-02T01:31:36.586Z,99124.09
2018-12-02T01:34:07.659Z,99128.03
2018-12-02T01:36:39.195Z,99123.31
2018-12-02T01:39:10.740Z,99121.59
2018-12-02T01:41:41.557Z,99125.55
2018-12-02T01:44:12.457Z,99132.37
2018-12-02T01:46:43.043Z,99123.92
2018-12-02T01:49:13.867Z,99132.13
2018-12-02T01:51:44.699Z,99142.03
2018-12-02T01:54:16.076Z,99135.18
2018-12-02T01:56:47.062Z,99134.47
2018-12-02T01:59:18.006Z,99125.17
2018-12-02T02:01:48.860Z,99129.56
2018-12-02T02:04:19.691Z,99123.61
2018-12-02T02:06:50.624Z,99121.58
2018-12-02T02:09:21.603Z,99121.69
2018-12-02T02:11:52.730Z,99120.02
2018-12-02T02:14:23.502Z,99113.23
2018-12-02T02:16:54.454Z,99113.28
2018-12-02T02:19:25.672Z,99112.00
2018-12-02T02:21:56.425Z,99107.77
2018-12-02T02:24:28.031Z,99117.25
2018-12-02T02:26:58.942Z,99115.16
2018-12-02T02:29:31.076Z,99116.61
2018-12-02T02:32:01.905Z,99104.34
2018-12-02T02:34:32.666Z,99105.36
2018-12-02T02:37:03.400Z,99104.17
2018-12-02T02:39:34.140Z,99108.84
2018-12-02T02:42:05.033Z,99118.63
2018-12-02T02:44:35.699Z,99115.44
2018-12-02T02:47:06.654Z,99117.89
2018-12-02T02:49:37.485Z,99103.27
2018-12-02T02:52:09.431Z,99109.31
2018-12-02T02:54:40.225Z,99105.09
2018-12-02T02:57:11.522Z,99102.56
2018-12-02T02:59:42.341Z,99098.77
2018-12-02T03:02:13.192Z,99107.86
2018-12-02T03:04:44.080Z,99100.26
2018-12-02T03:07:15.085Z,99099.47
2018-12-02T03:09:46.103Z,99094.75
2018-12-02T03:12:16.866Z,99094.27
2018-12-02T03:14:47.739Z,99090.30
2018-12-02T03:17:18.501Z,99093.09
2018-12-02T03:19:49.417Z,99089.55
2018-12-02T03:22:21.010Z,99086.40
2018-12-02T03:24:51.871Z,99085.53
2018-12-02T03:27:22.910Z,99080.39
2018-12-02T03:29:53.895Z,99087.25
2018-12-02T03:32:24.847Z,99082.55
2018-12-02T03:34:55.663Z,99074.03
2018-12-02T03:37:26.609Z,99080.45
2018-12-02T03:39:57.516Z,99080.45
2018-12-02T03:42:28.251Z,99081.74
2018-12-02T03:44:59.063Z,99085.64
2018-12-02T03:47:30.162Z,99085.59
2018-12-02T03:50:01.015Z,99079.22
2018-12-02T03:52:31.948Z,99085.64
2018-12-02T03:55:02.631Z,99086.17
2018-12-02T03:57:33.393Z,99085.48
2018-12-02T04:00:04.465Z,99082.16
2018-12-02T04:02:35.281Z,99085.27
2018-12-02T04:05:06.324Z,99092.98
2018-12-02T04:07:37.008Z,99087.45
2018-12-02T04:10:15.226Z,99090.09
2018-12-02T04:12:46.636Z,99090.67
2018-12-02T04:15:19.824Z,99089.48
2018-12-02T04:17:50.590Z,99086.55
2018-12-02T04:20:22.095Z,99084.36
2018-12-02T04:22:54.074Z,99087.26
2018-12-02T04:25:27.000Z,99086.06
2018-12-02T04:27:57.811Z,99080.55
2018-12-02T04:30:28.584Z,99081.41
2018-12-02T04:32:59.542Z,99086.55
2018-12-02T04:35:30.330Z,99091.74
2018-12-02T04:38:01.271Z,99088.32
2018-12-02T04:40:32.065Z,99087.03
2018-12-02T04:43:02.913Z,99088.84
2018-12-02T04:45:33.876Z,99099.06
2018-12-02T04:48:04.762Z,99088.94
2018-12-02T04:50:35.666Z,99089.80
2018-12-02T04:53:07.203Z,99093.28
2018-12-02T04:55:37.831Z,99090.81
2018-12-02T04:58:08.813Z,99090.47
2018-12-02T05:00:39.600Z,99097.70
2018-12-02T05:03:10.410Z,99087.86
2018-12-02T05:05:41.147Z,99096.42
2018-12-02T05:08:12.018Z,99092.63
2018-12-02T05:10:42.875Z,99102.09
2018-12-02T05:13:13.685Z,99097.05
2018-12-02T05:15:45.059Z,99102.34
2018-12-02T05:18:16.012Z,99100.33
2018-12-02T05:20:47.253Z,99105.05
2018-12-02T05:23:18.120Z,99107.62
2018-12-02T05:25:48.996Z,99103.66
2018-12-02T05:28:19.796Z,99112.47
2018-12-02T05:30:50.566Z,99106.80
2018-12-02T05:33:21.393Z,99108.41
2018-12-02T05:35:52.208Z,99111.35
2018-12-02T05:38:23.187Z,99111.27
2018-12-02T05:40:55.347Z,99107.94
2018-12-02T05:43:26.264Z,99108.78
2018-12-02T05:45:57.579Z,99114.83
2018-12-02T05:48:28.353Z,99117.92
2018-12-02T05:50:59.156Z,99109.27
2018-12-02T05:53:30.087Z,99107.99
2018-12-02T05:56:01.095Z,99116.30
2018-12-02T05:58:31.981Z,99113.50
2018-12-02T06:01:03.290Z,99115.41
2018-12-02T06:03:34.835Z,99110.32
2018-12-02T06:06:05.846Z,99111.22
2018-12-02T06:08:36.703Z,99106.42
2018-12-02T06:11:09.548Z,99111.55
2018-12-02T06:13:40.312Z,99116.21
2018-12-02T06:16:10.964Z,99113.22
2018-12-02T06:18:42.553Z,99114.84
2018-12-02T06:21:13.245Z,99118.70
2018-12-02T06:23:44.046Z,99125.45
2018-12-02T06:26:14.827Z,99132.20
2018-12-02T06:28:46.040Z,99130.05
2018-12-02T06:31:18.284Z,99130.96
2018-12-02T06:33:49.274Z,99129.72
2018-12-02T06:36:20.607Z,99129.30
2018-12-02T06:38:51.820Z,99128.83
2018-12-02T06:41:23.098Z,99129.63
2018-12-02T06:43:53.894Z,99132.15
2018-12-02T06:46:25.024Z,99127.88
2018-12-02T06:48:56.415Z,99130.48
2018-12-02T06:51:27.211Z,99134.44
2018-12-02T06:53:58.444Z,99129.73
2018-12-02T06:56:33.275Z,99128.34
2018-12-02T06:59:20.595Z,99131.34
2018-12-02T07:01:56.819Z,99135.81
2018-12-02T07:04:35.415Z,99139.27
2018-12-02T07:07:06.952Z,99141.55
2018-12-02T07:09:38.213Z,99149.95
2018-12-02T07:12:09.345Z,99146.28
2018-12-02T07:14:40.464Z,99152.53
2018-12-02T07:17:11.576Z,99154.20
2018-12-02T07:19:46.793Z,99156.88
2018-12-02T07:22:26.621Z,99152.55
2018-12-02T07:24:57.739Z,99150.77
2018-12-02T07:27:28.681Z,99151.19
2018-12-02T07:29:59.550Z,99153.34
2018-12-02T07:32:30.754Z,99151.49
2018-12-02T07:35:02.387Z,99162.03
2018-12-02T07:37:33.206Z,99162.86
2018-12-02T07:40:32.602Z,99164.75
2018-12-02T07:43:04.114Z,99156.55
2018-12-02T07:45:35.731Z,99160.42
2018-12-02T07:48:06.891Z,99167.16
2018-12-02T07:50:37.979Z,99162.48
2018-12-02T07:53:09.311Z,99162.13
2018-12-02T07:55:40.485Z,99160.22
2018-12-02T07:58:16.898Z,99162.48
2018-12-02T08:00:48.194Z,99152.77
2018-12-02T08:03:19.423Z,99157.65
2018-12-02T08:05:50.321Z,99166.47
2018-12-02T08:08:21.848Z,99175.58
2018-12-02T08:10:53.904Z,99169.02
2018-12-02T08:13:24.860Z,99168.16
2018-12-02T08:15:55.726Z,99166.30
2018-12-02T08:18:26.475Z,99164.47
2018-12-02T08:20:57.412Z,99161.25
2018-12-02T08:23:28.759Z,99168.98
2018-12-02T08:26:01.137Z,99162.84
2018-12-02T08:28:33.383Z,99159.88
2018-12-02T08:31:04.343Z,99159.49
2018-12-02T08:33:35.294Z,99169.76
2018-12-02T08:36:06.959Z,99168.65
2018-12-02T08:38:37.852Z,99174.41
2018-12-02T08:41:08.523Z,99168.80
2018-12-02T08:43:39.787Z,99174.40
2018-12-02T08:46:11.241Z,99172.59
2018-12-02T08:48:42.450Z,99166.70
2018-12-02T08:51:15.017Z,99170.65
2018-12-02T08:53:46.709Z,99164.44
2018-12-02T08:56:18.374Z,99166.04
2018-12-02T08:58:50.695Z,99162.22
2018-12-02T09:01:23.155Z,99153.92
2018-12-02T09:03:55.411Z,99157.56
2018-12-02T09:06:26.969Z,99161.89
2018-12-02T09:08:59.299Z,99168.05
2018-12-02T09:11:32.120Z,99163.02
2018-12-02T09:14:03.487Z,99158.14
2018-12-02T09:16:36.175Z,99166.59
2018-12-02T09:19:07.673Z,99161.47
2018-12-02T09:21:39.131Z,99157.43
2018-12-02T09:24:11.771Z,99157.75
2018-12-02T09:26:43.192Z,99146.03
2018-12-02T09:29:14.551Z,99147.99
2018-12-02T09:31:45.695Z,99151.16
2018-12-02T09:34:17.055Z,99149.83
2018-12-02T09:36:48.423Z,99152.44
2018-12-02T09:39:21.001Z,99144.16
2018-12-02T09:41:53.111Z,99143.66
2018-12-02T09:44:26.307Z,99148.30
2018-12-02T09:47:05.191Z,99139.66
2018-12-02T09:49:36.894Z,99135.73
2018-12-02T09:52:08.721Z,99140.82
2018-12-02T09:54:40.314Z,99130.26
2018-12-02T09:57:12.175Z,99128.30
2018-12-02T09:59:43.834Z,99123.00
2018-12-02T10:02:15.417Z,99116.47
2018-12-02T10:04:48.849Z,99113.45
2018-12-02T10:07:20.706Z,99111.44
2018-12-02T10:09:52.662Z,99108.34
2018-12-02T10:12:24.604Z,99115.50
2018-12-02T10:14:56.036Z,99125.55
2018-12-02T10:17:28.416Z,99133.31
2018-12-02T10:20:01.116Z,99130.41
2018-12-02T10:22:32.483Z,99128.73
2018-12-02T10:25:04.612Z,99133.50
2018-12-02T10:27:37.216Z,99133.80
2018-12-02T10:30:13.769Z,99135.13
2018-12-02T10:32:47.290Z,99123.84
2018-12-02T10:35:19.535Z,99124.89
2018-12-02T10:37:51.846Z,99109.16
2018-12-02T10:40:25.087Z,99114.56
2018-12-02T10:42:56.654Z,99124.16
2018-12-02T10:45:29.718Z,99115.22
2018-12-02T10:48:02.859Z,99112.48
2018-12-02T10:50:35.408Z,99110.56
2018-12-02T10:53:19.015Z,99108.38
2018-12-02T10:55:54.010Z,99105.66
2018-12-02T10:58:27.661Z,99110.29
2018-12-02T11:01:05.563Z,99123.19
2018-12-02T11:03:37.001Z,99105.55
2018-12-02T11:06:09.655Z,99098.49
2018-12-02T11:08:42.955Z,99093.27
2018-12-02T11:11:15.092Z,99092.64
2018-12-02T11:13:47.548Z,99090.01
2018-12-02T11:16:20.078Z,99080.15
2018-12-02T11:18:52.403Z,99067.84
2018-12-02T11:21:26.966Z,99064.78
2018-12-02T11:23:58.940Z,99045.05
2018-12-02T11:26:33.156Z,99054.46
2018-12-02T11:29:05.708Z,99067.25
2018-12-02T11:31:39.029Z,99072.79
2018-12-02T11:34:11.705Z,99072.61
2018-12-02T11:36:44.094Z,99078.68
2018-12-02T11:39:17.270Z,99090.91
2018-12-02T11:41:51.087Z,99087.00
2018-12-02T11:44:23.709Z,99094.74
2018-12-02T11:46:56.595Z,99096.30
2018-12-02T11:49:29.515Z,99094.92
2018-12-02T11:52:03.108Z,99095.92
2018-12-02T11:54:35.660Z,99078.05
2018-12-02T11:57:08.445Z,99067.01
2018-12-02T11:59:40.844Z,99057.13
2018-12-02T12:02:13.794Z,99057.02
2018-12-02T12:04:46.656Z,99044.44
2018-12-02T12:07:19.156Z,99043.34
2018-12-02T12:09:51.476Z,99040.34
2018-12-02T12:12:24.433Z,99044.72
2018-12-02T12:14:57.216Z,99058.83
2018-12-02T12:17:29.644Z,99057.23
2018-12-02T12:20:02.205Z,99050.16
2018-12-02T12:22:35.193Z,99043.56
2018-12-02T12:25:09.015Z,99032.56
2018-12-02T12:27:41.860Z,99032.91
2018-12-02T12:30:20.053Z,99036.02
2018-12-02T12:32:54.459Z,99029.00
2018-12-02T12:35:27.520Z,99018.77
2018-12-02T12:38:00.373Z,99021.66
2018-12-02T12:40:37.065Z,99020.07
2018-12-02T12:43:29.865Z,99011.11
2018-12-02T12:46:03.373Z,99009.98
2018-12-02T12:48:36.658Z,99015.02
2018-12-02T12:51:12.421Z,99012.81
2018-12-02T12:53:45.240Z,99012.00
2018-12-02T12:56:19.319Z,99016.48
2018-12-02T12:58:53.241Z,99013.38
2018-12-02T13:01:27.051Z,99004.35
2018-12-02T13:03:59.679Z,98986.67
2018-12-02T13:06:32.774Z,98997.76
2018-12-02T13:09:07.258Z,99002.32
2018-12-02T13:11:40.680Z,99004.66
2018-12-02T13:14:14.440Z,99004.94
2018-12-02T13:16:49.227Z,99014.06
2018-12-02T13:19:22.697Z,99026.40
2018-12-02T13:21:56.205Z,99024.78
2018-12-02T13:24:30.252Z,99030.02
2018-12-02T13:27:02.847Z,99040.71
2018-12-02T13:29:35.583Z,99050.02
2018-12-02T13:32:08.611Z,99044.89
2018-12-02T13:34:42.436Z,99040.05
2018-12-02T13:37:15.532Z,99045.38
2018-12-02T13:39:49.078Z,99042.41
2018-12-02T13:42:21.846Z,99043.13
2018-12-02T13:44:55.090Z,99029.72
2018-12-02T13:47:28.972Z,99018.69
2018-12-02T13:50:02.212Z,99019.49
2018-12-02T13:52:35.244Z,99017.11
2018-12-02T13:55:09.890Z,99025.63
2018-12-02T13:57:42.692Z,99030.05
2018-12-02T14:00:22.756Z,99032.39
2018-12-02T14:03:01.739Z,99026.92
2018-12-02T14:05:35.658Z,99016.03
2018-12-02T14:08:09.967Z,99008.30
2018-12-02T14:10:42.724Z,99000.64
2018-12-02T14:13:22.370Z,99002.84
2018-12-02T14:17:10.296Z,98994.48
2018-12-02T14:19:44.607Z,99001.44
2018-12-02T14:22:18.245Z,98991.44
2018-12-02T14:24:51.904Z,98987.00
2018-12-02T14:27:24.583Z,98979.19
2018-12-02T14:29:58.667Z,98976.45
2018-12-02T14:32:31.200Z,98979.97
2018-12-02T14:35:03.517Z,98993.39
2018-12-02T14:37:37.318Z,98986.61
2018-12-02T14:40:14.516Z,98983.98
2018-12-02T14:42:47.794Z,98984.62
2018-12-02T14:45:20.705Z,98973.91
2018-12-02T14:47:52.983Z,98976.22
2018-12-02T14:50:25.470Z,98983.09
2018-12-02T14:52:58.204Z,98986.20
2018-12-02T14:55:30.603Z,98985.69
2018-12-02T14:58:03.106Z,98986.27
2018-12-02T15:00:35.628Z,98975.35
2018-12-02T15:03:08.430Z,98975.34
2018-12-02T15:05:41.392Z,98979.64
2018-12-02T15:08:16.355Z,98974.48
2018-12-02T15:10:48.832Z,98973.72
2018-12-02T15:13:21.745Z,98978.75
2018-12-02T15:15:54.524Z,98978.21
2018-12-02T15:18:27.217Z,98982.36
2018-12-02T15:21:00.180Z,98982.48
2018-12-02T15:23:32.819Z,98983.66
2018-12-02T15:26:06.234Z,98996.36
2018-12-02T15:28:40.286Z,98991.03
2018-12-02T15:31:13.773Z,98997.38
2018-12-02T15:33:46.296Z,98993.19
2018-12-02T15:36:19.722Z,98988.36
2018-12-02T15:38:52.107Z,98991.25
2018-12-02T15:41:24.911Z,98991.63
2018-12-02T15:43:58.812Z,98993.29
2018-12-02T15:46:32.077Z,98989.59
2018-12-02T15:49:04.536Z,98990.33
2018-12-02T15:51:37.907Z,98994.45
2018-12-02T15:54:11.339Z,98992.29
2018-12-02T15:56:44.169Z,98997.98
2018-12-02T15:59:16.764Z,98990.16
2018-12-02T16:01:49.347Z,98979.30
2018-12-02T16:04:21.943Z,98971.02
2018-12-02T16:06:54.850Z,98975.86
2018-12-02T16:09:27.441Z,98986.72
2018-12-02T16:12:01.609Z,98987.84
2018-12-02T16:14:34.426Z,98999.42
2018-12-02T16:17:09.044Z,98998.25
2018-12-02T16:19:41.931Z,98993.61
2018-12-02T16:22:14.524Z,98992.47
2018-12-02T16:24:47.837Z,99000.77
2018-12-02T16:27:20.361Z,99005.22
2018-12-02T16:29:53.316Z,98999.53
2018-12-02T16:32:26.611Z,98994.52
2018-12-02T16:34:59.087Z,98994.71
2018-12-02T16:37:31.801Z,98996.17
2018-12-02T16:40:04.713Z,99001.22
2018-12-02T16:42:37.755Z,99002.27
2018-12-02T16:45:16.947Z,99001.77
2018-12-02T16:47:51.817Z,98987.06
2018-12-02T16:50:30.297Z,98988.08
2018-12-02T16:53:09.465Z,98981.38
2018-12-02T16:55:53.794Z,98981.63
2018-12-02T16:58:33.898Z,98982.18
2018-12-02T17:01:27.283Z,98985.14
2018-12-02T17:04:03.072Z,98984.78
2018-12-02T17:06:37.658Z,98987.73
2018-12-02T17:09:15.023Z,98994.09
2018-12-02T17:11:48.841Z,98992.39
2018-12-02T17:14:22.078Z,98991.94
2018-12-02T17:16:56.118Z,98996.03
2018-12-02T17:19:29.495Z,98992.84
2018-12-02T17:22:02.360Z,98990.69
2018-12-02T17:24:36.896Z,98992.90
2018-12-02T17:27:10.017Z,98990.44
2018-12-02T17:29:44.352Z,98990.19
2018-12-02T17:32:18.528Z,99000.20
2018-12-02T17:34:51.792Z,99001.05
2018-12-02T17:37:26.503Z,99001.44
2018-12-02T17:40:00.798Z,98996.53
2018-12-02T17:42:34.643Z,98995.07
2018-12-02T17:45:10.247Z,98996.56
2018-12-02T17:47:45.445Z,98995.00
2018-12-02T17:50:20.950Z,99004.77
2018-12-02T17:52:55.236Z,99001.97
2018-12-02T17:55:30.769Z,99001.08
2018-12-02T17:58:04.498Z,99004.44
2018-12-02T18:00:38.655Z,99005.98
2018-12-02T18:03:13.337Z,98997.41
2018-12-02T18:05:48.775Z,98999.01
2018-12-02T18:08:21.907Z,98999.31
2018-12-02T18:10:54.675Z,99003.39
2018-12-02T18:13:27.853Z,99002.37
2018-12-02T18:16:00.712Z,98996.06
2018-12-02T18:18:34.391Z,98998.04
2018-12-02T18:21:07.644Z,99000.94
2018-12-02T18:23:40.629Z,98996.45
2018-12-02T18:26:14.047Z,98998.36
2018-12-02T18:28:46.833Z,99000.31
2018-12-02T18:31:20.559Z,98988.44
2018-12-02T18:33:54.118Z,98989.98
2018-12-02T18:36:33.795Z,98992.75
2018-12-02T18:39:15.227Z,98993.91
2018-12-02T18:41:54.545Z,98994.30
2018-12-02T18:44:27.555Z,98994.03
2018-12-02T18:47:01.662Z,99000.31
2018-12-02T18:49:34.037Z,99002.23
2018-12-02T18:52:07.410Z,99002.02
2018-12-02T18:54:39.981Z,99008.92
2018-12-02T18:57:12.496Z,99009.88
2018-12-02T18:59:46.162Z,99006.53
2018-12-02T19:02:19.549Z,99010.05
2018-12-02T19:04:52.959Z,99010.27
2018-12-02T19:07:26.165Z,99014.73
2018-12-02T19:09:59.005Z,99010.45
2018-12-02T19:12:31.642Z,99009.42
2018-12-02T19:15:06.063Z,99022.81
2018-12-02T19:17:38.875Z,99024.55
2018-12-02T19:20:16.459Z,99023.41
2018-12-02T19:22:50.779Z,99022.30
2018-12-02T19:25:25.659Z,99017.65
2018-12-02T19:27:58.864Z,99024.97
2018-12-02T19:30:33.154Z,99021.00
2018-12-02T19:33:05.518Z,99021.77
2018-12-02T19:35:39.291Z,99023.59
2018-12-02T19:38:27.778Z,99024.31
2018-12-02T19:41:00.447Z,99026.36
2018-12-02T19:43:33.421Z,99024.03
2018-12-02T19:46:06.252Z,99019.94
2018-12-02T19:48:39.959Z,99012.78
2018-12-02T19:51:15.720Z,99018.45
2018-12-02T19:53:49.468Z,99018.72
2018-12-02T19:56:22.732Z,99026.98
2018-12-02T19:58:56.615Z,99026.98
2018-12-02T20:01:31.031Z,99023.47
2018-12-02T20:04:05.852Z,99031.64
2018-12-02T20:06:39.684Z,99028.12
2018-12-02T20:09:14.022Z,99032.70
2018-12-02T20:11:48.289Z,99020.52
2018-12-02T20:14:21.156Z,99022.27
2018-12-02T20:16:54.835Z,99017.90
2018-12-02T20:19:32.774Z,99018.00
2018-12-02T20:22:05.813Z,99011.09
2018-12-02T20:24:40.928Z,99019.20
2018-12-02T20:27:15.049Z,99016.87
2018-12-02T20:29:48.781Z,99013.72
2018-12-02T20:32:23.307Z,99013.78
2018-12-02T20:34:57.323Z,99008.31
2018-12-02T20:37:29.686Z,99008.88
2018-12-02T20:40:04.880Z,99005.42
2018-12-02T20:42:39.202Z,99009.62
2018-12-02T20:45:13.832Z,99007.18
2018-12-02T20:47:47.088Z,99004.13
2018-12-02T20:50:20.976Z,99017.31
2018-12-02T20:52:54.236Z,99011.42
2018-12-02T20:55:28.469Z,99005.86
2018-12-02T20:58:04.763Z,99004.47
2018-12-02T21:00:37.780Z,99001.89
2018-12-02T21:03:30.857Z,98998.73
2018-12-02T21:06:12.454Z,99003.02
2018-12-02T21:08:46.566Z,98996.31
2018-12-02T21:11:19.659Z,99004.14
2018-12-02T21:13:54.057Z,98999.49
2018-12-02T21:16:28.385Z,98998.38
2018-12-02T21:19:01.121Z,99002.45
2018-12-02T21:21:37.370Z,99005.61
2018-12-02T21:24:08.224Z,99003.01
2018-12-02T21:26:41.141Z,99006.91
2018-12-02T21:29:13.865Z,99009.70
2018-12-02T21:31:46.245Z,99006.26
2018-12-02T21:34:19.922Z,99007.10
2018-12-02T21:36:53.436Z,99005.08
2018-12-02T21:39:26.292Z,99009.53
2018-12-02T21:41:59.043Z,99007.56
2018-12-02T21:44:31.446Z,99012.70
2018-12-02T21:47:04.524Z,99001.44
2018-12-02T21:49:38.103Z,99007.86
2018-12-02T21:52:10.813Z,99002.82
2018-12-02T21:54:43.446Z,99003.31
2018-12-02T21:57:16.370Z,98999.30
2018-12-02T21:59:48.613Z,98992.59
2018-12-02T22:02:21.849Z,98990.45
2018-12-02T22:04:54.105Z,98986.81
2018-12-02T22:07:26.834Z,98983.08
2018-12-02T22:09:59.290Z,98991.55
2018-12-02T22:12:31.422Z,98988.68
2018-12-02T22:15:03.835Z,98990.83
2018-12-02T22:17:37.553Z,98983.84
2018-12-02T22:20:14.120Z,98984.77
2018-12-02T22:22:46.569Z,98976.13
2018-12-02T22:25:22.019Z,98964.94
2018-12-02T22:27:55.989Z,98962.71
2018-12-02T22:30:28.427Z,98961.70
2018-12-02T22:32:59.899Z,98958.16
2018-12-02T22:35:31.294Z,98955.38
2018-12-02T22:38:02.375Z,98961.41
2018-12-02T22:40:33.494Z,98974.11
2018-12-02T22:43:04.528Z,98972.35
2018-12-02T22:45:35.953Z,98969.68
2018-12-02T22:48:07.084Z,98971.56
2018-12-02T22:50:38.163Z,98969.04
2018-12-02T22:53:09.373Z,98959.55
2018-12-02T22:55:40.440Z,98955.75
2018-12-02T22:58:11.192Z,98956.41
2018-12-02T23:00:47.461Z,98958.52
2018-12-02T23:03:18.537Z,98963.36
2018-12-02T23:05:49.831Z,98961.34
2018-12-02T23:08:20.751Z,98956.56
2018-12-02T23:10:51.436Z,98947.36
2018-12-02T23:13:22.384Z,98940.18
2018-12-02T23:15:54.463Z,98942.15
2018-12-02T23:18:25.552Z,98939.08
2018-12-02T23:20:56.541Z,98946.06
2018-12-02T23:23:27.368Z,98943.55
2018-12-02T23:25:58.985Z,98940.30
2018-12-02T23:28:29.782Z,98930.80
2018-12-02T23:31:00.603Z,98922.52
2018-12-02T23:33:31.704Z,98928.94
2018-12-02T23:36:02.801Z,98926.26
2018-12-02T23:38:33.582Z,98930.42
2018-12-02T23:41:04.408Z,98928.38
2018-12-02T23:43:35.298Z,98924.73
2018-12-02T23:46:06.346Z,98918.16
2018-12-02T23:48:37.222Z,98920.09
2018-12-02T23:51:08.224Z,98919.35
2018-12-02T23:53:39.186Z,98916.84
2018-12-02T23:56:10.005Z,98905.58
2018-12-02T23:58:41.279Z,98908.19
